sensor_id;sensor_type;location;lat;lon;timestamp;P1;durP1;ratioP1;P2;durP2;ratioP2
21837;SDS011;11081;45.946;6.140;2024-03-17T00:00:38;4.80;;;2.53;;
21837;SDS011;11081;45.946;6.140;2024-03-17T00:03:05;7.97;;;2.25;;
21837;SDS011;11081;45.946;6.140;2024-03-17T00:05:33;5.45;;;2.08;;
21837;SDS011;11081;45.946;6.140;2024-03-17T00:08:01;4.57;;;1.83;;
21837;SDS011;11081;45.946;6.140;2024-03-17T00:10:30;5.15;;;1.92;;
21837;SDS011;11081;45.946;6.140;2024-03-17T00:12:56;4.47;;;1.90;;
21837;SDS011;11081;45.946;6.140;2024-03-17T00:15:24;5.68;;;1.73;;
21837;SDS011;11081;45.946;6.140;2024-03-17T00:17:50;4.68;;;1.55;;
21837;SDS011;11081;45.946;6.140;2024-03-17T00:20:17;6.57;;;1.42;;
21837;SDS011;11081;45.946;6.140;2024-03-17T00:22:45;7.70;;;1.40;;
21837;SDS011;11081;45.946;6.140;2024-03-17T00:25:15;3.38;;;1.13;;
21837;SDS011;11081;45.946;6.140;2024-03-17T00:27:41;4.90;;;1.80;;
21837;SDS011;11081;45.946;6.140;2024-03-17T00:30:10;3.88;;;2.03;;
21837;SDS011;11081;45.946;6.140;2024-03-17T00:32:38;5.60;;;1.30;;
21837;SDS011;11081;45.946;6.140;2024-03-17T00:35:06;3.17;;;1.30;;
21837;SDS011;11081;45.946;6.140;2024-03-17T00:37:32;5.43;;;1.35;;
21837;SDS011;11081;45.946;6.140;2024-03-17T00:40:00;4.85;;;1.35;;
21837;SDS011;11081;45.946;6.140;2024-03-17T00:42:27;4.35;;;1.60;;
21837;SDS011;11081;45.946;6.140;2024-03-17T00:44:55;4.25;;;1.80;;
21837;SDS011;11081;45.946;6.140;2024-03-17T00:47:21;4.03;;;1.30;;
21837;SDS011;11081;45.946;6.140;2024-03-17T00:49:48;3.80;;;1.40;;
21837;SDS011;11081;45.946;6.140;2024-03-17T00:52:15;3.80;;;1.40;;
21837;SDS011;11081;45.946;6.140;2024-03-17T00:54:42;4.60;;;1.33;;
21837;SDS011;11081;45.946;6.140;2024-03-17T00:57:09;5.72;;;1.95;;
21837;SDS011;11081;45.946;6.140;2024-03-17T00:59:37;3.60;;;1.30;;
21837;SDS011;11081;45.946;6.140;2024-03-17T01:02:04;4.85;;;1.20;;
21837;SDS011;11081;45.946;6.140;2024-03-17T01:04:31;6.97;;;1.30;;
21837;SDS011;11081;45.946;6.140;2024-03-17T01:06:59;5.13;;;1.55;;
21837;SDS011;11081;45.946;6.140;2024-03-17T01:09:26;4.28;;;1.33;;
21837;SDS011;11081;45.946;6.140;2024-03-17T01:11:52;7.15;;;1.65;;
21837;SDS011;11081;45.946;6.140;2024-03-17T01:14:19;7.95;;;1.40;;
21837;SDS011;11081;45.946;6.140;2024-03-17T01:16:46;5.13;;;1.33;;
21837;SDS011;11081;45.946;6.140;2024-03-17T01:19:13;3.30;;;1.10;;
21837;SDS011;11081;45.946;6.140;2024-03-17T01:21:39;2.97;;;1.30;;
21837;SDS011;11081;45.946;6.140;2024-03-17T01:24:06;5.05;;;1.55;;
21837;SDS011;11081;45.946;6.140;2024-03-17T01:26:33;3.50;;;1.17;;
21837;SDS011;11081;45.946;6.140;2024-03-17T01:29:00;9.77;;;1.85;;
21837;SDS011;11081;45.946;6.140;2024-03-17T01:31:27;4.72;;;1.30;;
21837;SDS011;11081;45.946;6.140;2024-03-17T01:33:56;4.63;;;1.27;;
21837;SDS011;11081;45.946;6.140;2024-03-17T01:36:22;4.65;;;1.20;;
21837;SDS011;11081;45.946;6.140;2024-03-17T01:38:49;3.85;;;1.58;;
21837;SDS011;11081;45.946;6.140;2024-03-17T01:41:15;5.93;;;1.50;;
21837;SDS011;11081;45.946;6.140;2024-03-17T01:43:42;4.07;;;1.67;;
21837;SDS011;11081;45.946;6.140;2024-03-17T01:46:09;4.35;;;1.40;;
21837;SDS011;11081;45.946;6.140;2024-03-17T01:48:39;2.28;;;1.40;;
21837;SDS011;11081;45.946;6.140;2024-03-17T01:51:07;2.30;;;1.30;;
21837;SDS011;11081;45.946;6.140;2024-03-17T01:53:37;4.00;;;1.40;;
21837;SDS011;11081;45.946;6.140;2024-03-17T01:56:05;4.30;;;1.23;;
21837;SDS011;11081;45.946;6.140;2024-03-17T01:58:34;4.32;;;1.40;;
21837;SDS011;11081;45.946;6.140;2024-03-17T02:01:00;4.07;;;1.48;;
21837;SDS011;11081;45.946;6.140;2024-03-17T02:03:29;5.82;;;1.38;;
21837;SDS011;11081;45.946;6.140;2024-03-17T02:05:55;2.88;;;1.20;;
21837;SDS011;11081;45.946;6.140;2024-03-17T02:08:24;10.30;;;1.63;;
21837;SDS011;11081;45.946;6.140;2024-03-17T02:10:52;2.75;;;1.30;;
21837;SDS011;11081;45.946;6.140;2024-03-17T02:13:20;2.42;;;1.10;;
21837;SDS011;11081;45.946;6.140;2024-03-17T02:15:46;3.78;;;1.35;;
21837;SDS011;11081;45.946;6.140;2024-03-17T02:18:13;7.65;;;1.45;;
21837;SDS011;11081;45.946;6.140;2024-03-17T02:20:39;2.45;;;1.10;;
21837;SDS011;11081;45.946;6.140;2024-03-17T02:23:25;6.97;;;1.67;;
21837;SDS011;11081;45.946;6.140;2024-03-17T02:25:52;3.42;;;2.08;;
21837;SDS011;11081;45.946;6.140;2024-03-17T02:28:19;5.32;;;1.80;;
21837;SDS011;11081;45.946;6.140;2024-03-17T02:30:45;4.03;;;1.20;;
21837;SDS011;11081;45.946;6.140;2024-03-17T02:33:12;3.05;;;1.27;;
21837;SDS011;11081;45.946;6.140;2024-03-17T02:35:38;6.00;;;1.55;;
21837;SDS011;11081;45.946;6.140;2024-03-17T02:38:05;7.80;;;1.67;;
21837;SDS011;11081;45.946;6.140;2024-03-17T02:40:34;5.97;;;1.20;;
21837;SDS011;11081;45.946;6.140;2024-03-17T02:43:01;5.05;;;1.35;;
21837;SDS011;11081;45.946;6.140;2024-03-17T02:45:28;5.72;;;1.23;;
21837;SDS011;11081;45.946;6.140;2024-03-17T02:47:55;3.97;;;1.27;;
21837;SDS011;11081;45.946;6.140;2024-03-17T02:50:22;4.07;;;1.40;;
21837;SDS011;11081;45.946;6.140;2024-03-17T02:52:49;3.67;;;1.25;;
21837;SDS011;11081;45.946;6.140;2024-03-17T02:55:16;5.90;;;1.20;;
21837;SDS011;11081;45.946;6.140;2024-03-17T02:57:45;4.68;;;1.48;;
21837;SDS011;11081;45.946;6.140;2024-03-17T03:00:12;4.55;;;1.38;;
21837;SDS011;11081;45.946;6.140;2024-03-17T03:02:39;4.85;;;1.20;;
21837;SDS011;11081;45.946;6.140;2024-03-17T03:05:07;3.10;;;0.80;;
21837;SDS011;11081;45.946;6.140;2024-03-17T03:07:34;4.25;;;1.35;;
21837;SDS011;11081;45.946;6.140;2024-03-17T03:10:01;2.88;;;1.00;;
21837;SDS011;11081;45.946;6.140;2024-03-17T03:12:28;4.63;;;1.30;;
21837;SDS011;11081;45.946;6.140;2024-03-17T03:14:56;3.35;;;1.23;;
21837;SDS011;11081;45.946;6.140;2024-03-17T03:17:23;3.30;;;1.23;;
21837;SDS011;11081;45.946;6.140;2024-03-17T03:19:50;3.88;;;1.27;;
21837;SDS011;11081;45.946;6.140;2024-03-17T03:22:17;2.20;;;0.98;;
21837;SDS011;11081;45.946;6.140;2024-03-17T03:24:47;4.72;;;1.25;;
21837;SDS011;11081;45.946;6.140;2024-03-17T03:27:14;3.10;;;1.15;;
21837;SDS011;11081;45.946;6.140;2024-03-17T03:29:41;9.60;;;1.20;;
21837;SDS011;11081;45.946;6.140;2024-03-17T03:32:09;4.60;;;1.20;;
21837;SDS011;11081;45.946;6.140;2024-03-17T03:34:36;3.15;;;1.33;;
21837;SDS011;11081;45.946;6.140;2024-03-17T03:37:04;3.67;;;1.48;;
21837;SDS011;11081;45.946;6.140;2024-03-17T03:39:32;3.67;;;1.23;;
21837;SDS011;11081;45.946;6.140;2024-03-17T03:42:01;5.40;;;1.38;;
21837;SDS011;11081;45.946;6.140;2024-03-17T03:44:28;4.97;;;1.40;;
21837;SDS011;11081;45.946;6.140;2024-03-17T03:46:55;6.43;;;1.83;;
21837;SDS011;11081;45.946;6.140;2024-03-17T03:49:25;4.43;;;1.20;;
21837;SDS011;11081;45.946;6.140;2024-03-17T03:51:52;2.38;;;1.38;;
21837;SDS011;11081;45.946;6.140;2024-03-17T03:54:19;3.10;;;1.10;;
21837;SDS011;11081;45.946;6.140;2024-03-17T03:56:46;2.13;;;0.93;;
21837;SDS011;11081;45.946;6.140;2024-03-17T03:59:13;5.60;;;1.00;;
21837;SDS011;11081;45.946;6.140;2024-03-17T04:01:40;4.68;;;0.95;;
21837;SDS011;11081;45.946;6.140;2024-03-17T04:04:08;4.00;;;0.80;;
21837;SDS011;11081;45.946;6.140;2024-03-17T04:06:36;1.92;;;1.00;;
21837;SDS011;11081;45.946;6.140;2024-03-17T04:09:03;5.75;;;1.02;;
21837;SDS011;11081;45.946;6.140;2024-03-17T04:11:32;5.28;;;1.02;;
21837;SDS011;11081;45.946;6.140;2024-03-17T04:13:59;4.40;;;1.10;;
21837;SDS011;11081;45.946;6.140;2024-03-17T04:16:27;1.92;;;0.80;;
21837;SDS011;11081;45.946;6.140;2024-03-17T04:18:56;3.47;;;1.10;;
21837;SDS011;11081;45.946;6.140;2024-03-17T04:21:23;2.13;;;1.13;;
21837;SDS011;11081;45.946;6.140;2024-03-17T04:23:52;4.20;;;1.25;;
21837;SDS011;11081;45.946;6.140;2024-03-17T04:26:19;7.50;;;1.35;;
21837;SDS011;11081;45.946;6.140;2024-03-17T04:28:46;2.83;;;1.52;;
21837;SDS011;11081;45.946;6.140;2024-03-17T04:31:13;5.38;;;1.23;;
21837;SDS011;11081;45.946;6.140;2024-03-17T04:33:40;3.80;;;1.33;;
21837;SDS011;11081;45.946;6.140;2024-03-17T04:36:07;4.30;;;1.33;;
21837;SDS011;11081;45.946;6.140;2024-03-17T04:38:35;4.38;;;1.05;;
21837;SDS011;11081;45.946;6.140;2024-03-17T04:41:04;4.03;;;1.10;;
21837;SDS011;11081;45.946;6.140;2024-03-17T04:43:33;3.67;;;0.90;;
21837;SDS011;11081;45.946;6.140;2024-03-17T04:46:01;3.25;;;1.05;;
21837;SDS011;11081;45.946;6.140;2024-03-17T04:48:30;3.58;;;1.10;;
21837;SDS011;11081;45.946;6.140;2024-03-17T04:50:57;5.05;;;1.00;;
21837;SDS011;11081;45.946;6.140;2024-03-17T04:53:25;4.43;;;1.30;;
21837;SDS011;11081;45.946;6.140;2024-03-17T04:56:04;4.45;;;1.20;;
21837;SDS011;11081;45.946;6.140;2024-03-17T04:58:32;3.25;;;1.55;;
21837;SDS011;11081;45.946;6.140;2024-03-17T05:01:05;3.65;;;1.65;;
21837;SDS011;11081;45.946;6.140;2024-03-17T05:03:33;5.72;;;1.77;;
21837;SDS011;11081;45.946;6.140;2024-03-17T05:06:00;7.47;;;1.63;;
21837;SDS011;11081;45.946;6.140;2024-03-17T05:08:27;7.68;;;1.70;;
21837;SDS011;11081;45.946;6.140;2024-03-17T05:10:58;3.90;;;1.20;;
21837;SDS011;11081;45.946;6.140;2024-03-17T05:13:27;5.70;;;0.98;;
21837;SDS011;11081;45.946;6.140;2024-03-17T05:15:54;7.25;;;1.58;;
21837;SDS011;11081;45.946;6.140;2024-03-17T05:18:21;3.20;;;1.02;;
21837;SDS011;11081;45.946;6.140;2024-03-17T05:20:56;5.55;;;1.40;;
21837;SDS011;11081;45.946;6.140;2024-03-17T05:23:25;5.28;;;1.20;;
21837;SDS011;11081;45.946;6.140;2024-03-17T05:25:53;4.80;;;1.23;;
21837;SDS011;11081;45.946;6.140;2024-03-17T05:28:22;2.50;;;0.80;;
21837;SDS011;11081;45.946;6.140;2024-03-17T05:30:50;3.47;;;1.10;;
21837;SDS011;11081;45.946;6.140;2024-03-17T05:33:18;5.40;;;1.20;;
21837;SDS011;11081;45.946;6.140;2024-03-17T05:35:49;3.45;;;1.13;;
21837;SDS011;11081;45.946;6.140;2024-03-17T05:38:18;3.22;;;0.98;;
21837;SDS011;11081;45.946;6.140;2024-03-17T05:40:52;4.97;;;1.23;;
21837;SDS011;11081;45.946;6.140;2024-03-17T05:43:20;2.40;;;1.00;;
21837;SDS011;11081;45.946;6.140;2024-03-17T05:45:47;2.17;;;0.90;;
21837;SDS011;11081;45.946;6.140;2024-03-17T05:48:15;2.50;;;1.10;;
21837;SDS011;11081;45.946;6.140;2024-03-17T05:50:42;8.18;;;1.30;;
21837;SDS011;11081;45.946;6.140;2024-03-17T05:53:09;2.30;;;1.05;;
21837;SDS011;11081;45.946;6.140;2024-03-17T05:55:36;1.92;;;0.82;;
21837;SDS011;11081;45.946;6.140;2024-03-17T05:58:03;5.63;;;1.10;;
21837;SDS011;11081;45.946;6.140;2024-03-17T06:00:30;5.63;;;1.13;;
21837;SDS011;11081;45.946;6.140;2024-03-17T06:02:57;4.90;;;1.20;;
21837;SDS011;11081;45.946;6.140;2024-03-17T06:05:27;4.45;;;1.05;;
21837;SDS011;11081;45.946;6.140;2024-03-17T06:07:54;2.38;;;1.15;;
21837;SDS011;11081;45.946;6.140;2024-03-17T06:10:21;3.97;;;0.93;;
21837;SDS011;11081;45.946;6.140;2024-03-17T06:12:49;3.47;;;0.98;;
21837;SDS011;11081;45.946;6.140;2024-03-17T06:15:17;7.65;;;1.45;;
21837;SDS011;11081;45.946;6.140;2024-03-17T06:17:46;4.40;;;1.15;;
21837;SDS011;11081;45.946;6.140;2024-03-17T06:20:13;2.10;;;1.20;;
21837;SDS011;11081;45.946;6.140;2024-03-17T06:22:41;4.32;;;0.95;;
21837;SDS011;11081;45.946;6.140;2024-03-17T06:25:08;3.40;;;1.17;;
21837;SDS011;11081;45.946;6.140;2024-03-17T06:27:35;4.20;;;1.05;;
21837;SDS011;11081;45.946;6.140;2024-03-17T06:30:03;4.68;;;1.00;;
21837;SDS011;11081;45.946;6.140;2024-03-17T06:32:30;4.78;;;1.30;;
21837;SDS011;11081;45.946;6.140;2024-03-17T06:34:58;1.70;;;1.00;;
21837;SDS011;11081;45.946;6.140;2024-03-17T06:37:25;5.30;;;1.67;;
21837;SDS011;11081;45.946;6.140;2024-03-17T06:39:53;6.57;;;1.42;;
21837;SDS011;11081;45.946;6.140;2024-03-17T06:42:20;3.80;;;1.20;;
21837;SDS011;11081;45.946;6.140;2024-03-17T06:44:47;2.63;;;1.20;;
21837;SDS011;11081;45.946;6.140;2024-03-17T06:47:14;5.20;;;1.23;;
21837;SDS011;11081;45.946;6.140;2024-03-17T06:49:41;2.22;;;0.93;;
21837;SDS011;11081;45.946;6.140;2024-03-17T06:52:09;3.13;;;1.00;;
21837;SDS011;11081;45.946;6.140;2024-03-17T06:54:36;5.40;;;1.17;;
21837;SDS011;11081;45.946;6.140;2024-03-17T06:57:05;2.10;;;0.98;;
21837;SDS011;11081;45.946;6.140;2024-03-17T06:59:32;3.92;;;1.20;;
21837;SDS011;11081;45.946;6.140;2024-03-17T07:01:59;4.45;;;1.25;;
21837;SDS011;11081;45.946;6.140;2024-03-17T07:04:26;3.38;;;1.33;;
21837;SDS011;11081;45.946;6.140;2024-03-17T07:06:53;3.47;;;0.98;;
21837;SDS011;11081;45.946;6.140;2024-03-17T07:09:20;2.60;;;0.95;;
21837;SDS011;11081;45.946;6.140;2024-03-17T07:11:48;4.20;;;1.40;;
21837;SDS011;11081;45.946;6.140;2024-03-17T07:14:17;5.78;;;1.83;;
21837;SDS011;11081;45.946;6.140;2024-03-17T07:16:44;4.10;;;1.58;;
21837;SDS011;11081;45.946;6.140;2024-03-17T07:19:11;3.25;;;1.67;;
21837;SDS011;11081;45.946;6.140;2024-03-17T07:21:38;5.47;;;1.88;;
21837;SDS011;11081;45.946;6.140;2024-03-17T07:24:05;5.22;;;1.70;;
21837;SDS011;11081;45.946;6.140;2024-03-17T07:26:32;4.72;;;1.70;;
21837;SDS011;11081;45.946;6.140;2024-03-17T07:29:00;4.60;;;2.08;;
21837;SDS011;11081;45.946;6.140;2024-03-17T07:31:28;5.20;;;1.67;;
21837;SDS011;11081;45.946;6.140;2024-03-17T07:33:55;4.55;;;1.60;;
21837;SDS011;11081;45.946;6.140;2024-03-17T07:36:23;4.03;;;2.20;;
21837;SDS011;11081;45.946;6.140;2024-03-17T07:38:50;4.70;;;2.60;;
21837;SDS011;11081;45.946;6.140;2024-03-17T07:41:17;6.53;;;2.35;;
21837;SDS011;11081;45.946;6.140;2024-03-17T07:43:45;6.35;;;1.75;;
21837;SDS011;11081;45.946;6.140;2024-03-17T07:46:12;5.38;;;2.28;;
21837;SDS011;11081;45.946;6.140;2024-03-17T07:48:41;8.50;;;2.03;;
21837;SDS011;11081;45.946;6.140;2024-03-17T07:51:10;4.80;;;1.80;;
21837;SDS011;11081;45.946;6.140;2024-03-17T07:53:38;4.22;;;1.63;;
21837;SDS011;11081;45.946;6.140;2024-03-17T07:56:07;5.82;;;2.08;;
21837;SDS011;11081;45.946;6.140;2024-03-17T07:58:36;3.22;;;1.80;;
21837;SDS011;11081;45.946;6.140;2024-03-17T08:01:04;4.60;;;1.75;;
21837;SDS011;11081;45.946;6.140;2024-03-17T08:03:32;4.80;;;2.30;;
21837;SDS011;11081;45.946;6.140;2024-03-17T08:06:02;8.88;;;3.08;;
21837;SDS011;11081;45.946;6.140;2024-03-17T08:08:32;8.98;;;3.35;;
21837;SDS011;11081;45.946;6.140;2024-03-17T08:11:01;10.98;;;2.75;;
21837;SDS011;11081;45.946;6.140;2024-03-17T08:13:29;7.03;;;3.05;;
21837;SDS011;11081;45.946;6.140;2024-03-17T08:15:59;4.50;;;2.08;;
21837;SDS011;11081;45.946;6.140;2024-03-17T08:18:27;4.20;;;1.77;;
21837;SDS011;11081;45.946;6.140;2024-03-17T08:20:54;6.15;;;1.95;;
21837;SDS011;11081;45.946;6.140;2024-03-17T08:23:23;4.93;;;1.80;;
21837;SDS011;11081;45.946;6.140;2024-03-17T08:25:53;6.00;;;1.60;;
21837;SDS011;11081;45.946;6.140;2024-03-17T08:28:21;4.95;;;1.70;;
21837;SDS011;11081;45.946;6.140;2024-03-17T08:30:52;5.88;;;1.65;;
21837;SDS011;11081;45.946;6.140;2024-03-17T08:33:19;6.50;;;2.08;;
21837;SDS011;11081;45.946;6.140;2024-03-17T08:35:54;3.75;;;2.22;;
21837;SDS011;11081;45.946;6.140;2024-03-17T08:38:24;3.38;;;1.70;;
21837;SDS011;11081;45.946;6.140;2024-03-17T08:40:53;5.38;;;1.88;;
21837;SDS011;11081;45.946;6.140;2024-03-17T08:43:21;4.72;;;1.65;;
21837;SDS011;11081;45.946;6.140;2024-03-17T08:45:54;4.88;;;1.80;;
21837;SDS011;11081;45.946;6.140;2024-03-17T08:48:23;3.95;;;1.65;;
21837;SDS011;11081;45.946;6.140;2024-03-17T08:50:51;3.35;;;1.50;;
21837;SDS011;11081;45.946;6.140;2024-03-17T08:53:18;6.18;;;1.77;;
21837;SDS011;11081;45.946;6.140;2024-03-17T08:55:46;4.53;;;2.05;;
21837;SDS011;11081;45.946;6.140;2024-03-17T08:58:13;4.50;;;1.92;;
21837;SDS011;11081;45.946;6.140;2024-03-17T09:00:40;5.10;;;1.98;;
21837;SDS011;11081;45.946;6.140;2024-03-17T09:03:08;5.75;;;1.92;;
21837;SDS011;11081;45.946;6.140;2024-03-17T09:05:35;9.70;;;1.90;;
21837;SDS011;11081;45.946;6.140;2024-03-17T09:08:03;3.85;;;1.90;;
21837;SDS011;11081;45.946;6.140;2024-03-17T09:10:30;3.97;;;1.58;;
21837;SDS011;11081;45.946;6.140;2024-03-17T09:12:58;4.88;;;1.92;;
21837;SDS011;11081;45.946;6.140;2024-03-17T09:15:25;6.65;;;2.17;;
21837;SDS011;11081;45.946;6.140;2024-03-17T09:17:52;6.55;;;2.72;;
21837;SDS011;11081;45.946;6.140;2024-03-17T09:20:19;5.63;;;2.45;;
21837;SDS011;11081;45.946;6.140;2024-03-17T09:22:46;7.75;;;2.20;;
21837;SDS011;11081;45.946;6.140;2024-03-17T09:25:13;4.82;;;2.15;;
21837;SDS011;11081;45.946;6.140;2024-03-17T09:27:41;3.05;;;1.30;;
21837;SDS011;11081;45.946;6.140;2024-03-17T09:30:10;3.53;;;1.63;;
21837;SDS011;11081;45.946;6.140;2024-03-17T09:32:37;2.67;;;1.50;;
21837;SDS011;11081;45.946;6.140;2024-03-17T09:35:05;4.22;;;1.98;;
21837;SDS011;11081;45.946;6.140;2024-03-17T09:37:32;7.05;;;2.20;;
21837;SDS011;11081;45.946;6.140;2024-03-17T09:40:00;5.82;;;2.60;;
21837;SDS011;11081;45.946;6.140;2024-03-17T09:42:27;5.43;;;2.35;;
21837;SDS011;11081;45.946;6.140;2024-03-17T09:44:54;5.43;;;2.47;;
21837;SDS011;11081;45.946;6.140;2024-03-17T09:47:23;9.38;;;2.00;;
21837;SDS011;11081;45.946;6.140;2024-03-17T09:49:51;4.68;;;2.15;;
21837;SDS011;11081;45.946;6.140;2024-03-17T09:52:20;7.30;;;2.35;;
21837;SDS011;11081;45.946;6.140;2024-03-17T09:54:50;6.35;;;3.00;;
21837;SDS011;11081;45.946;6.140;2024-03-17T09:57:23;5.38;;;2.97;;
21837;SDS011;11081;45.946;6.140;2024-03-17T09:59:51;6.47;;;2.83;;
21837;SDS011;11081;45.946;6.140;2024-03-17T10:02:19;7.90;;;2.92;;
21837;SDS011;11081;45.946;6.140;2024-03-17T10:04:48;6.75;;;2.63;;
21837;SDS011;11081;45.946;6.140;2024-03-17T10:07:15;5.05;;;2.38;;
21837;SDS011;11081;45.946;6.140;2024-03-17T10:09:42;5.90;;;3.05;;
21837;SDS011;11081;45.946;6.140;2024-03-17T10:12:26;4.78;;;2.17;;
21837;SDS011;11081;45.946;6.140;2024-03-17T10:14:57;5.78;;;2.38;;
21837;SDS011;11081;45.946;6.140;2024-03-17T10:17:29;7.30;;;2.58;;
21837;SDS011;11081;45.946;6.140;2024-03-17T10:25:27;4.63;;;2.38;;
21837;SDS011;11081;45.946;6.140;2024-03-17T10:27:55;6.28;;;1.92;;
21837;SDS011;11081;45.946;6.140;2024-03-17T10:30:23;7.13;;;1.70;;
21837;SDS011;11081;45.946;6.140;2024-03-17T10:32:52;4.55;;;2.60;;
21837;SDS011;11081;45.946;6.140;2024-03-17T10:35:28;4.60;;;2.28;;
21837;SDS011;11081;45.946;6.140;2024-03-17T10:37:57;4.53;;;2.35;;
21837;SDS011;11081;45.946;6.140;2024-03-17T10:40:25;5.20;;;2.20;;
21837;SDS011;11081;45.946;6.140;2024-03-17T10:42:55;4.28;;;2.05;;
21837;SDS011;11081;45.946;6.140;2024-03-17T10:45:23;6.15;;;1.95;;
21837;SDS011;11081;45.946;6.140;2024-03-17T10:47:52;6.85;;;2.40;;
21837;SDS011;11081;45.946;6.140;2024-03-17T10:50:19;3.67;;;1.90;;
21837;SDS011;11081;45.946;6.140;2024-03-17T10:52:49;3.08;;;1.60;;
21837;SDS011;11081;45.946;6.140;2024-03-17T10:55:19;2.92;;;1.63;;
21837;SDS011;11081;45.946;6.140;2024-03-17T10:57:49;4.25;;;1.88;;
21837;SDS011;11081;45.946;6.140;2024-03-17T11:00:17;3.20;;;1.40;;
21837;SDS011;11081;45.946;6.140;2024-03-17T11:02:47;3.28;;;1.40;;
21837;SDS011;11081;45.946;6.140;2024-03-17T11:05:20;4.55;;;1.50;;
21837;SDS011;11081;45.946;6.140;2024-03-17T11:07:50;3.63;;;1.60;;
21837;SDS011;11081;45.946;6.140;2024-03-17T11:10:19;2.70;;;1.40;;
21837;SDS011;11081;45.946;6.140;2024-03-17T11:12:49;5.90;;;1.88;;
21837;SDS011;11081;45.946;6.140;2024-03-17T11:15:36;4.28;;;1.70;;
21837;SDS011;11081;45.946;6.140;2024-03-17T11:20:57;5.15;;;1.65;;
21837;SDS011;11081;45.946;6.140;2024-03-17T11:23:29;5.45;;;1.70;;
21837;SDS011;11081;45.946;6.140;2024-03-17T11:25:57;3.13;;;1.67;;
21837;SDS011;11081;45.946;6.140;2024-03-17T11:34:03;5.07;;;1.80;;
21837;SDS011;11081;45.946;6.140;2024-03-17T11:36:32;2.95;;;1.58;;
21837;SDS011;11081;45.946;6.140;2024-03-17T11:39:03;5.03;;;1.63;;
21837;SDS011;11081;45.946;6.140;2024-03-17T11:41:40;3.53;;;1.63;;
21837;SDS011;11081;45.946;6.140;2024-03-17T11:44:15;2.60;;;1.45;;
21837;SDS011;11081;45.946;6.140;2024-03-17T11:46:44;3.85;;;1.50;;
21837;SDS011;11081;45.946;6.140;2024-03-17T11:49:16;4.22;;;1.58;;
21837;SDS011;11081;45.946;6.140;2024-03-17T11:51:44;2.25;;;1.23;;
21837;SDS011;11081;45.946;6.140;2024-03-17T11:54:14;6.32;;;1.80;;
21837;SDS011;11081;45.946;6.140;2024-03-17T11:56:48;2.95;;;1.70;;
21837;SDS011;11081;45.946;6.140;2024-03-17T11:59:16;4.50;;;1.73;;
21837;SDS011;11081;45.946;6.140;2024-03-17T12:01:43;2.92;;;1.35;;
21837;SDS011;11081;45.946;6.140;2024-03-17T12:04:13;3.00;;;1.55;;
21837;SDS011;11081;45.946;6.140;2024-03-17T12:06:39;4.50;;;1.73;;
21837;SDS011;11081;45.946;6.140;2024-03-17T12:09:11;3.88;;;1.60;;
21837;SDS011;11081;45.946;6.140;2024-03-17T12:11:50;2.78;;;1.50;;
21837;SDS011;11081;45.946;6.140;2024-03-17T12:14:18;2.70;;;1.50;;
21837;SDS011;11081;45.946;6.140;2024-03-17T12:16:52;2.95;;;1.55;;
21837;SDS011;11081;45.946;6.140;2024-03-17T12:19:19;5.47;;;1.70;;
21837;SDS011;11081;45.946;6.140;2024-03-17T12:21:48;4.65;;;1.67;;
21837;SDS011;11081;45.946;6.140;2024-03-17T12:24:17;5.80;;;1.70;;
21837;SDS011;11081;45.946;6.140;2024-03-17T12:26:45;6.03;;;1.63;;
21837;SDS011;11081;45.946;6.140;2024-03-17T12:29:26;5.15;;;1.60;;
21837;SDS011;11081;45.946;6.140;2024-03-17T12:31:55;4.30;;;1.80;;
21837;SDS011;11081;45.946;6.140;2024-03-17T12:34:25;4.55;;;1.38;;
21837;SDS011;11081;45.946;6.140;2024-03-17T12:36:52;5.75;;;1.73;;
21837;SDS011;11081;45.946;6.140;2024-03-17T12:39:22;7.60;;;1.80;;
21837;SDS011;11081;45.946;6.140;2024-03-17T12:42:02;4.75;;;1.65;;
21837;SDS011;11081;45.946;6.140;2024-03-17T12:44:30;4.15;;;1.58;;
21837;SDS011;11081;45.946;6.140;2024-03-17T12:46:57;4.90;;;1.85;;
21837;SDS011;11081;45.946;6.140;2024-03-17T12:49:26;5.40;;;1.70;;
21837;SDS011;11081;45.946;6.140;2024-03-17T12:51:52;5.07;;;1.90;;
21837;SDS011;11081;45.946;6.140;2024-03-17T12:54:23;5.30;;;1.83;;
21837;SDS011;11081;45.946;6.140;2024-03-17T12:56:50;4.63;;;1.60;;
21837;SDS011;11081;45.946;6.140;2024-03-17T12:59:41;10.75;;;2.05;;
21837;SDS011;11081;45.946;6.140;2024-03-17T13:02:27;5.18;;;1.60;;
21837;SDS011;11081;45.946;6.140;2024-03-17T13:07:42;4.20;;;1.80;;
21837;SDS011;11081;45.946;6.140;2024-03-17T13:10:13;5.28;;;1.98;;
21837;SDS011;11081;45.946;6.140;2024-03-17T13:12:41;3.35;;;1.85;;
21837;SDS011;11081;45.946;6.140;2024-03-17T13:15:09;5.72;;;1.77;;
21837;SDS011;11081;45.946;6.140;2024-03-17T13:17:39;5.78;;;1.60;;
21837;SDS011;11081;45.946;6.140;2024-03-17T13:20:06;5.63;;;1.95;;
21837;SDS011;11081;45.946;6.140;2024-03-17T13:22:37;4.93;;;1.90;;
21837;SDS011;11081;45.946;6.140;2024-03-17T13:25:07;3.88;;;1.70;;
21837;SDS011;11081;45.946;6.140;2024-03-17T13:27:36;3.40;;;1.63;;
21837;SDS011;11081;45.946;6.140;2024-03-17T13:30:04;3.00;;;1.50;;
21837;SDS011;11081;45.946;6.140;2024-03-17T13:32:32;3.10;;;1.42;;
21837;SDS011;11081;45.946;6.140;2024-03-17T13:34:59;8.60;;;1.73;;
21837;SDS011;11081;45.946;6.140;2024-03-17T13:37:26;8.93;;;2.08;;
21837;SDS011;11081;45.946;6.140;2024-03-17T13:39:53;5.40;;;1.83;;
21837;SDS011;11081;45.946;6.140;2024-03-17T13:42:20;4.00;;;1.50;;
21837;SDS011;11081;45.946;6.140;2024-03-17T13:44:49;4.47;;;2.00;;
21837;SDS011;11081;45.946;6.140;2024-03-17T13:47:16;4.90;;;1.80;;
21837;SDS011;11081;45.946;6.140;2024-03-17T13:49:44;3.80;;;1.52;;
21837;SDS011;11081;45.946;6.140;2024-03-17T13:52:12;4.63;;;1.70;;
21837;SDS011;11081;45.946;6.140;2024-03-17T13:54:39;5.35;;;1.63;;
21837;SDS011;11081;45.946;6.140;2024-03-17T13:57:06;3.85;;;1.50;;
21837;SDS011;11081;45.946;6.140;2024-03-17T13:59:33;4.65;;;1.85;;
21837;SDS011;11081;45.946;6.140;2024-03-17T14:02:03;7.72;;;2.17;;
21837;SDS011;11081;45.946;6.140;2024-03-17T14:04:30;2.40;;;1.20;;
21837;SDS011;11081;45.946;6.140;2024-03-17T14:06:57;3.45;;;1.55;;
21837;SDS011;11081;45.946;6.140;2024-03-17T14:09:24;3.17;;;1.30;;
21837;SDS011;11081;45.946;6.140;2024-03-17T14:11:51;4.30;;;1.25;;
21837;SDS011;11081;45.946;6.140;2024-03-17T14:14:18;3.45;;;1.63;;
21837;SDS011;11081;45.946;6.140;2024-03-17T14:16:45;2.95;;;1.13;;
21837;SDS011;11081;45.946;6.140;2024-03-17T14:19:13;6.10;;;1.63;;
21837;SDS011;11081;45.946;6.140;2024-03-17T14:21:40;5.07;;;1.67;;
21837;SDS011;11081;45.946;6.140;2024-03-17T14:24:08;2.47;;;1.30;;
21837;SDS011;11081;45.946;6.140;2024-03-17T14:26:36;3.38;;;1.77;;
21837;SDS011;11081;45.946;6.140;2024-03-17T14:29:02;3.35;;;1.98;;
21837;SDS011;11081;45.946;6.140;2024-03-17T14:31:30;3.38;;;1.42;;
21837;SDS011;11081;45.946;6.140;2024-03-17T14:33:58;3.22;;;1.23;;
21837;SDS011;11081;45.946;6.140;2024-03-17T14:36:27;5.72;;;1.38;;
21837;SDS011;11081;45.946;6.140;2024-03-17T14:38:54;4.15;;;1.35;;
21837;SDS011;11081;45.946;6.140;2024-03-17T14:41:22;2.22;;;1.05;;
21837;SDS011;11081;45.946;6.140;2024-03-17T14:43:49;7.57;;;1.40;;
21837;SDS011;11081;45.946;6.140;2024-03-17T14:46:16;1.95;;;1.00;;
21837;SDS011;11081;45.946;6.140;2024-03-17T14:48:43;3.78;;;1.45;;
21837;SDS011;11081;45.946;6.140;2024-03-17T14:51:10;3.28;;;1.17;;
21837;SDS011;11081;45.946;6.140;2024-03-17T14:53:39;3.10;;;1.05;;
21837;SDS011;11081;45.946;6.140;2024-03-17T14:56:13;2.97;;;0.90;;
21837;SDS011;11081;45.946;6.140;2024-03-17T14:58:41;2.92;;;1.13;;
21837;SDS011;11081;45.946;6.140;2024-03-17T15:01:08;3.45;;;1.27;;
21837;SDS011;11081;45.946;6.140;2024-03-17T15:03:36;4.75;;;1.20;;
21837;SDS011;11081;45.946;6.140;2024-03-17T15:06:03;5.80;;;1.20;;
21837;SDS011;11081;45.946;6.140;2024-03-17T15:08:30;3.30;;;1.30;;
21837;SDS011;11081;45.946;6.140;2024-03-17T15:10:59;5.68;;;1.40;;